EW2918 Weather Reports


Display with metric or nautical units.
time (UTC)temp
F
wind
direction
speed
MPH
gust
MPH
rain 1hr
in
rain 24hr
in
rain mn
in
humidity
%
barometer
mb
20220518231307 85 0 0.0 0.0 0.00 0.00 0.00 33 1012.3
20220518230807 85 0 0.0 0.0 0.00 0.00 0.00 33 1012.4
20220518230307 85 0 0.0 0.0 0.00 0.00 0.00 33 1012.2
20220518224807 86 0 0.0 0.0 0.00 0.00 0.00 31 1012.6
20220518224306 86 0 0.0 0.0 0.00 0.00 0.00 31 1012.6
20220518223807 86 0 0.0 0.0 0.00 0.00 0.00 31 1012.8
20220518223307 86 0 0.0 0.0 0.00 0.00 0.00 31 1012.7
20220518221807 86 0 0.0 0.0 0.00 0.00 0.00 31 1012.8
20220518221307 86 0 0.0 0.0 0.00 0.00 0.00 31 1013.0
20220518220806 86 0 0.0 0.0 0.00 0.00 0.00 31 1013.1
20220518220307 86 0 0.0 0.0 0.00 0.00 0.00 31 1013.1
20220518214807 86 0 0.0 0.0 0.00 0.00 0.00 29 1013.3
20220518214306 86 0 0.0 0.0 0.00 0.00 0.00 29 1013.5
20220518213806 86 0 0.0 0.0 0.00 0.00 0.00 29 1013.5
20220518213306 86 0 0.0 0.0 0.00 0.00 0.00 29 1013.5
20220518211806 86 0 0.0 0.0 0.00 0.00 0.00 29 1013.8
20220518211306 86 0 0.0 0.0 0.00 0.00 0.00 29 1013.8
20220518210807 86 0 0.0 0.0 0.00 0.00 0.00 29 1013.8
20220518210306 86 0 0.0 0.0 0.00 0.00 0.00 29 1013.9
20220518204806 86 0 0.0 0.0 0.00 0.00 0.00 28 1013.9
20220518204307 86 0 0.0 0.0 0.00 0.00 0.00 28 1013.9
20220518203807 86 0 0.0 0.0 0.00 0.00 0.00 28 1014.2
20220518203306 86 0 0.0 0.0 0.00 0.00 0.00 28 1014.3
20220518201806 86 0 0.0 0.0 0.00 0.00 0.00 28 1014.4
20220518201306 86 0 0.0 0.0 0.00 0.00 0.00 28 1014.7
20220518200806 86 0 0.0 0.0 0.00 0.00 0.00 28 1014.8
20220518200306 86 0 0.0 0.0 0.00 0.00 0.00 28 1015.0
20220518194806 86 0 0.0 0.0 0.00 0.00 0.00 27 1014.8
20220518194306 86 0 0.0 0.0 0.00 0.00 0.00 27 1014.8
20220518193806 86 0 0.0 0.0 0.00 0.00 0.00 27 1015.0
20220518193306 86 0 0.0 0.0 0.00 0.00 0.00 27 1015.0
20220518191806 86 0 0.0 0.0 0.00 0.00 0.00 27 1015.2
20220518191306 86 0 0.0 0.0 0.00 0.00 0.00 27 1015.4
20220518190806 86 0 0.0 0.0 0.00 0.00 0.00 27 1015.4
20220518190306 86 0 0.0 0.0 0.00 0.00 0.00 27 1015.4
20220518184805 85 0 0.0 0.0 0.00 0.00 0.00 31 1015.6
20220518184306 85 0 0.0 0.0 0.00 0.00 0.00 31 1015.6
20220518183806 85 0 0.0 0.0 0.00 0.00 0.00 31 1015.6
20220518183306 85 0 0.0 0.0 0.00 0.00 0.00 31 1015.7
20220518181806 85 0 0.0 0.0 0.00 0.00 0.00 31 1016.0
20220518181306 85 0 0.0 0.0 0.00 0.00 0.00 31 1016.0
20220518180806 85 0 0.0 0.0 0.00 0.00 0.00 31 1016.1
20220518180305 85 0 0.0 0.0 0.00 0.00 0.00 31 1016.4
20220518174806 83 0 0.0 0.0 0.00 0.00 0.00 31 1016.6
20220518174306 83 0 0.0 0.0 0.00 0.00 0.00 31 1016.9
20220518173805 83 0 0.0 0.0 0.00 0.00 0.00 31 1016.9
20220518173306 83 0 0.0 0.0 0.00 0.00 0.00 31 1017.2
20220518171805 83 0 0.0 0.0 0.00 0.00 0.00 31 1017.4
20220518171305 83 0 0.0 0.0 0.00 0.00 0.00 31 1017.5
20220518170806 83 0 0.0 0.0 0.00 0.00 0.00 31 1017.8
20220518170306 83 0 0.0 0.0 0.00 0.00 0.00 31 1017.8
20220518164805 82 0 0.0 0.0 0.00 0.00 0.00 36 1017.8
20220518164306 82 0 0.0 0.0 0.00 0.00 0.00 36 1018.1
20220518163806 82 0 0.0 0.0 0.00 0.00 0.00 36 1018.1
20220518163305 82 0 0.0 0.0 0.00 0.00 0.00 36 1018.1
20220518161805 82 0 0.0 0.0 0.00 0.00 0.00 36 1018.0
20220518161305 82 0 0.0 0.0 0.00 0.00 0.00 36 1018.0
20220518160806 82 0 0.0 0.0 0.00 0.00 0.00 36 1018.0
20220518160305 82 0 0.0 0.0 0.00 0.00 0.00 36 1017.9
20220518154805 80 0 0.0 0.0 0.00 0.00 0.00 37 1017.9
20220518154305 80 0 0.0 0.0 0.00 0.00 0.00 37 1017.9
20220518153805 80 0 0.0 0.0 0.00 0.00 0.00 37 1017.8
20220518153305 80 0 0.0 0.0 0.00 0.00 0.00 37 1017.6
20220518151805 80 0 0.0 0.0 0.00 0.00 0.00 37 1017.9
20220518151305 80 0 0.0 0.0 0.00 0.00 0.00 37 1018.0
20220518150805 80 0 0.0 0.0 0.00 0.00 0.00 37 1018.1
20220518150305 80 0 0.0 0.0 0.00 0.00 0.00 39 1018.4
20220518144805 73 0 0.0 0.0 0.00 0.00 0.00 47 1018.4
20220518144305 73 0 0.0 0.0 0.00 0.00 0.00 47 1018.6
20220518143807 73 0 0.0 0.0 0.00 0.00 0.00 47 1018.7
20220518143305 73 0 0.0 0.0 0.00 0.00 0.00 47 1018.7
20220518141805 73 0 0.0 0.0 0.00 0.00 0.00 47 1018.8
20220518141305 73 0 0.0 0.0 0.00 0.00 0.00 47 1019.0
20220518140805 73 0 0.0 0.0 0.00 0.00 0.00 47 1019.0
20220518140305 73 0 0.0 0.0 0.00 0.00 0.00 49 1019.0
20220518134805 65 0 0.0 0.0 0.00 0.00 0.00 60 1019.2
20220518134305 64 0 0.0 0.0 0.00 0.00 0.00 60 1019.2
20220518133805 64 0 0.0 0.0 0.00 0.00 0.00 60 1019.2
20220518133305 63 0 0.0 0.0 0.00 0.00 0.00 60 1019.1
20220518131805 62 0 0.0 0.0 0.00 0.00 0.00 60 1018.7
20220518131304 61 0 0.0 0.0 0.00 0.00 0.00 60 1018.7
20220518130805 61 0 0.0 0.0 0.00 0.00 0.00 60 1018.7
20220518130305 60 0 0.0 0.0 0.00 0.00 0.00 64 1018.7
20220518124805 59 0 0.0 0.0 0.00 0.00 0.00 80 1018.5
20220518124305 59 0 0.0 0.0 0.00 0.00 0.00 80 1018.5
20220518123805 58 0 0.0 0.0 0.00 0.00 0.00 80 1018.5
20220518123305 58 0 0.0 0.0 0.00 0.00 0.00 80 1018.2
20220518121805 57 0 0.0 0.0 0.00 0.00 0.00 80 1018.1
20220518121305 56 0 0.0 0.0 0.00 0.00 0.00 80 1018.2
20220518120805 56 0 0.0 0.0 0.00 0.00 0.00 80 1018.0
20220518120305 55 0 0.0 0.0 0.00 0.00 0.00 80 1018.0
20220518114805 55 0 0.0 0.0 0.00 0.00 0.00 86 1018.0
20220518114305 55 0 0.0 0.0 0.00 0.00 0.00 86 1018.1
20220518113805 55 0 0.0 0.0 0.00 0.00 0.00 86 1018.1
20220518113305 55 0 0.0 0.0 0.00 0.00 0.00 86 1018.1
20220518111805 55 0 0.0 0.0 0.00 0.00 0.00 86 1018.0
20220518111305 55 0 0.0 0.0 0.00 0.00 0.00 86 1018.0
20220518110805 55 0 0.0 0.0 0.00 0.00 0.00 86 1018.0
20220518110304 55 0 0.0 0.0 0.00 0.00 0.00 86 1017.9
20220518104805 57 0 0.0 0.0 0.00 0.00 0.00 80 1017.8
20220518104304 57 0 0.0 0.0 0.00 0.00 0.00 80 1017.8
20220518103804 57 0 0.0 0.0 0.00 0.00 0.00 80 1017.9
20220518103305 56 0 0.0 0.0 0.00 0.00 0.00 80 1017.9
20220518101805 56 0 0.0 0.0 0.00 0.00 0.00 80 1017.6
20220518101304 56 0 0.0 0.0 0.00 0.00 0.00 80 1017.5
20220518100804 56 0 0.0 0.0 0.00 0.00 0.00 80 1017.5
20220518100304 56 0 0.0 0.0 0.00 0.00 0.00 80 1017.6
20220518094804 56 0 0.0 0.0 0.00 0.00 0.00 83 1017.6
20220518094304 56 0 0.0 0.0 0.00 0.00 0.00 83 1017.6
20220518093804 56 0 0.0 0.0 0.00 0.00 0.00 83 1017.4
20220518093304 56 0 0.0 0.0 0.00 0.00 0.00 83 1017.4
20220518091804 56 0 0.0 0.0 0.00 0.00 0.00 83 1017.4
20220518091304 56 0 0.0 0.0 0.00 0.00 0.00 83 1017.3
20220518090804 56 0 0.0 0.0 0.00 0.00 0.00 83 1017.3
20220518090306 56 0 0.0 0.0 0.00 0.00 0.00 83 1017.3
20220518084804 57 0 0.0 0.0 0.00 0.00 0.00 80 1017.2
20220518084304 57 0 0.0 0.0 0.00 0.00 0.00 80 1017.2
20220518083804 57 0 0.0 0.0 0.00 0.00 0.00 80 1017.2
20220518083304 57 0 0.0 0.0 0.00 0.00 0.00 80 1017.0
20220518081804 57 0 0.0 0.0 0.00 0.00 0.00 80 1016.9
20220518081304 57 0 0.0 0.0 0.00 0.00 0.00 80 1016.9
20220518080804 57 0 0.0 0.0 0.00 0.00 0.00 80 1016.8
20220518080304 57 0 0.0 0.0 0.00 0.00 0.00 80 1016.8
20220518074804 58 0 0.0 0.0 0.00 0.00 0.00 77 1016.9
20220518074303 58 0 0.0 0.0 0.00 0.00 0.00 77 1016.9
20220518073804 58 0 0.0 0.0 0.00 0.00 0.00 77 1016.9
20220518073304 58 0 0.0 0.0 0.00 0.00 0.00 77 1016.9
20220518071803 58 0 0.0 0.0 0.00 0.00 0.00 77 1016.9
20220518071304 58 0 0.0 0.0 0.00 0.00 0.00 77 1017.0
20220518070803 58 0 0.0 0.0 0.00 0.00 0.00 77 1017.0
20220518070303 58 0 0.0 0.0 0.00 0.00 0.00 74 1017.0
20220518064808 61 0 0.0 0.0 0.00 0.00 0.00 64 1017.0
20220518064308 61 0 0.0 0.0 0.00 0.00 0.00 64 1017.0
20220518063808 61 0 0.0 0.0 0.00 0.00 0.00 64 1017.0
20220518063308 61 0 0.0 0.0 0.00 0.00 0.00 64 1017.0
20220518061808 61 0 0.0 0.0 0.00 0.00 0.00 64 1017.1
20220518061308 61 0 0.0 0.0 0.00 0.00 0.00 64 1017.1
20220518060808 61 0 0.0 0.0 0.00 0.00 0.00 64 1017.1
20220518060308 61 0 0.0 0.0 0.00 0.00 0.00 64 1017.1
20220518054808 64 0 0.0 0.0 0.00 0.00 0.00 57 1017.2
20220518054308 64 0 0.0 0.0 0.00 0.00 0.00 57 1017.2
20220518053808 64 0 0.0 0.0 0.00 0.00 0.00 57 1017.3
20220518053308 64 0 0.0 0.0 0.00 0.00 0.00 57 1017.3
20220518051808 64 0 0.0 0.0 0.00 0.00 0.00 57 1017.4
20220518051308 64 0 0.0 0.0 0.00 0.00 0.00 57 1017.3
20220518050807 64 0 0.0 0.0 0.00 0.00 0.00 57 1017.4
20220518050308 64 0 0.0 0.0 0.00 0.00 0.00 57 1017.4
20220518044808 68 0 0.0 0.0 0.00 0.00 0.00 50 1017.4
20220518044308 68 0 0.0 0.0 0.00 0.00 0.00 50 1017.4
20220518043808 68 0 0.0 0.0 0.00 0.00 0.00 50 1017.4
20220518043308 68 0 0.0 0.0 0.00 0.00 0.00 50 1017.4
20220518041808 68 0 0.0 0.0 0.00 0.00 0.00 50 1017.4
20220518041307 68 0 0.0 0.0 0.00 0.00 0.00 50 1017.5
20220518040818 68 0 0.0 0.0 0.00 0.00 0.00 50 1017.5
20220518040308 72 0 0.0 0.0 0.00 0.00 0.00 50 1017.5
20220518034807 71 0 0.0 0.0 0.00 0.00 0.00 45 1017.5
20220518034308 71 0 0.0 0.0 0.00 0.00 0.00 45 1017.5
20220518033808 71 0 0.0 0.0 0.00 0.00 0.00 45 1017.5
20220518033308 70 0 0.0 0.0 0.00 0.00 0.00 45 1017.6
20220518031807 70 0 0.0 0.0 0.00 0.00 0.00 45 1017.6
20220518031308 69 0 0.0 0.0 0.00 0.00 0.00 45 1017.6
20220518030807 69 0 0.0 0.0 0.00 0.00 0.00 45 1017.6
20220518030308 69 0 0.0 0.0 0.00 0.00 0.00 47 1017.4
20220518024808 69 0 0.0 0.0 0.00 0.00 0.00 56 1017.4
20220518024308 70 0 0.0 0.0 0.00 0.00 0.00 56 1017.3
20220518023807 70 0 0.0 0.0 0.00 0.00 0.00 56 1017.2
20220518023308 70 0 0.0 0.0 0.00 0.00 0.00 56 1017.1
20220518021807 71 0 0.0 0.0 0.00 0.00 0.00 56 1017.1
20220518021307 71 0 0.0 0.0 0.00 0.00 0.00 56 1017.1
20220518020807 72 0 0.0 0.0 0.00 0.00 0.00 56 1016.9
20220518020308 72 0 0.0 0.0 0.00 0.00 0.00 56 1016.9
20220518014807 73 0 0.0 0.0 0.00 0.00 0.00 51 1016.6
20220518014308 73 0 0.0 0.0 0.00 0.00 0.00 51 1016.3
20220518013808 74 0 0.0 0.0 0.00 0.00 0.00 51 1016.3
20220518013307 74 0 0.0 0.0 0.00 0.00 0.00 51 1016.3
20220518011807 75 0 0.0 0.0 0.00 0.00 0.00 51 1015.9
20220518011308 76 0 0.0 0.0 0.00 0.00 0.00 51 1015.9
20220518010807 76 0 0.0 0.0 0.00 0.00 0.00 51 1015.9
20220518010307 77 0 0.0 0.0 0.00 0.00 0.00 49 1015.9
20220518004807 78 0 0.0 0.0 0.00 0.00 0.00 41 1015.6
20220518004307 78 0 0.0 0.0 0.00 0.00 0.00 41 1015.6
20220518003807 78 0 0.0 0.0 0.00 0.00 0.00 41 1015.5
20220518003307 78 0 0.0 0.0 0.00 0.00 0.00 41 1015.4
20220518001807 80 0 0.0 0.0 0.00 0.00 0.00 41 1015.2
20220518001307 80 0 0.0 0.0 0.00 0.00 0.00 41 1015.2
20220518000807 81 0 0.0 0.0 0.00 0.00 0.00 41 1015.1
20220518000307 81 0 0.0 0.0 0.00 0.00 0.00 38 1015.0
20220517234807 82 0 0.0 0.0 0.00 0.00 0.00 28 1014.9
20220517234307 82 0 0.0 0.0 0.00 0.00 0.00 28 1014.8
20220517233807 82 0 0.0 0.0 0.00 0.00 0.00 28 1014.5
20220517233307 82 0 0.0 0.0 0.00 0.00 0.00 28 1014.5
20220517231806 83 0 0.0 0.0 0.00 0.00 0.00 28 1014.6